createdAt,value
2023-05-23T00:00:08.942Z,16.00
2023-05-23T00:02:41.748Z,15.80
2023-05-23T00:05:15.572Z,15.80
2023-05-23T00:07:43.679Z,15.80
2023-05-23T00:10:12.307Z,15.70
2023-05-23T00:12:42.458Z,15.70
2023-05-23T00:15:11.160Z,15.60
2023-05-23T00:17:39.697Z,15.50
2023-05-23T00:20:11.979Z,15.50
2023-05-23T00:22:42.974Z,15.50
2023-05-23T00:25:11.681Z,15.50
2023-05-23T00:27:40.905Z,15.70
2023-05-23T00:30:10.593Z,15.80
2023-05-23T00:32:38.814Z,15.90
2023-05-23T00:35:09.647Z,15.80
2023-05-23T00:37:38.227Z,15.70
2023-05-23T00:40:08.408Z,15.80
2023-05-23T00:42:36.466Z,15.90
2023-05-23T00:45:06.586Z,16.00
2023-05-23T00:47:34.862Z,16.10
2023-05-23T00:50:02.975Z,16.20
2023-05-23T00:52:32.389Z,16.20
2023-05-23T00:55:00.489Z,16.30
2023-05-23T00:57:28.746Z,16.30
2023-05-23T00:59:57.114Z,16.30
2023-05-23T01:02:25.666Z,16.30
2023-05-23T01:04:55.082Z,16.40
2023-05-23T01:07:23.430Z,16.40
2023-05-23T01:09:52.898Z,16.40
2023-05-23T01:12:28.108Z,16.40
2023-05-23T01:15:06.480Z,16.30
2023-05-23T01:17:45.200Z,16.30
2023-05-23T01:20:20.146Z,16.30
2023-05-23T01:23:01.374Z,16.30
2023-05-23T01:25:47.991Z,16.30
2023-05-23T01:28:20.830Z,16.30
2023-05-23T01:30:53.271Z,16.30
2023-05-23T01:33:23.667Z,16.20
2023-05-23T01:35:53.728Z,16.20
2023-05-23T01:38:24.483Z,16.20
2023-05-23T01:40:52.746Z,16.20
2023-05-23T01:43:22.542Z,16.10
2023-05-23T01:45:55.242Z,16.10
2023-05-23T01:48:24.639Z,16.00
2023-05-23T01:50:53.498Z,16.00
2023-05-23T01:53:24.019Z,16.00
2023-05-23T01:55:53.282Z,16.00
2023-05-23T01:58:24.598Z,16.00
2023-05-23T02:00:52.827Z,15.90
2023-05-23T02:03:21.185Z,15.90
2023-05-23T02:05:50.428Z,15.90
2023-05-23T02:08:18.584Z,15.90
2023-05-23T02:10:46.648Z,15.90
2023-05-23T02:13:16.254Z,15.90
2023-05-23T02:15:45.928Z,15.80
2023-05-23T02:18:14.106Z,15.90
2023-05-23T02:20:44.290Z,15.90
2023-05-23T02:23:12.385Z,15.80
2023-05-23T02:25:40.634Z,15.80
2023-05-23T02:28:08.957Z,15.80
2023-05-23T02:30:36.970Z,15.80
2023-05-23T02:33:08.309Z,15.70
2023-05-23T02:35:36.366Z,15.70
2023-05-23T02:38:06.179Z,15.70
2023-05-23T02:40:34.214Z,15.70
2023-05-23T02:43:03.568Z,15.70
2023-05-23T02:45:32.215Z,15.80
2023-05-23T02:48:00.563Z,15.80
2023-05-23T02:50:30.157Z,15.80
2023-05-23T02:53:00.138Z,15.80
2023-05-23T02:55:28.910Z,15.80
2023-05-23T02:57:58.696Z,15.70
2023-05-23T03:00:26.769Z,15.70
2023-05-23T03:02:57.556Z,15.70
2023-05-23T03:05:25.778Z,15.70
2023-05-23T03:07:57.817Z,15.60
2023-05-23T03:10:25.995Z,15.50
2023-05-23T03:12:54.422Z,15.50
2023-05-23T03:15:22.645Z,15.50
2023-05-23T03:17:50.951Z,15.50
2023-05-23T03:20:22.467Z,15.50
2023-05-23T03:22:50.618Z,15.50
2023-05-23T03:25:20.169Z,15.60
2023-05-23T03:27:49.093Z,15.60
2023-05-23T03:30:20.896Z,15.60
2023-05-23T03:32:50.098Z,15.60
2023-05-23T03:35:18.530Z,15.60
2023-05-23T03:37:46.733Z,15.60
2023-05-23T03:40:14.971Z,15.60
2023-05-23T03:42:45.069Z,15.60
2023-05-23T03:45:13.314Z,15.60
2023-05-23T03:47:43.104Z,15.60
2023-05-23T03:50:12.289Z,15.60
2023-05-23T03:52:40.512Z,15.60
2023-05-23T03:55:11.470Z,15.60
2023-05-23T03:57:40.176Z,15.50
2023-05-23T04:00:12.231Z,15.60
2023-05-23T04:02:46.391Z,15.50
2023-05-23T04:05:18.858Z,15.50
2023-05-23T04:07:47.889Z,15.50
2023-05-23T04:10:16.557Z,15.50
2023-05-23T04:12:45.029Z,15.50
2023-05-23T04:15:21.643Z,15.50
2023-05-23T04:18:09.399Z,15.60
2023-05-23T04:20:38.509Z,15.60
2023-05-23T04:23:08.304Z,15.60
2023-05-23T04:25:40.438Z,15.70
2023-05-23T04:28:20.958Z,15.70
2023-05-23T04:30:50.923Z,15.70
2023-05-23T04:33:22.856Z,15.70
2023-05-23T04:35:51.284Z,15.70
2023-05-23T04:38:19.425Z,15.70
2023-05-23T04:40:48.249Z,15.70
2023-05-23T04:43:27.447Z,15.70
2023-05-23T04:46:00.580Z,15.70
2023-05-23T04:48:38.918Z,15.70
2023-05-23T04:51:07.831Z,15.70
2023-05-23T04:53:41.047Z,15.80
2023-05-23T04:56:10.555Z,15.80
2023-05-23T04:58:40.641Z,15.80
2023-05-23T05:01:11.642Z,15.90
2023-05-23T05:03:40.240Z,15.90
2023-05-23T05:06:08.867Z,15.90
2023-05-23T05:08:37.781Z,15.90
2023-05-23T05:11:06.413Z,15.90
2023-05-23T05:13:34.821Z,15.90
2023-05-23T05:16:03.870Z,15.90
2023-05-23T05:18:33.328Z,15.90
2023-05-23T05:21:01.578Z,15.90
2023-05-23T05:23:33.353Z,15.90
2023-05-23T05:26:01.705Z,15.90
2023-05-23T05:28:29.906Z,15.90
2023-05-23T05:30:58.048Z,15.80
2023-05-23T05:33:28.466Z,15.90
2023-05-23T05:36:09.826Z,15.90
2023-05-23T05:38:37.856Z,15.90
2023-05-23T05:41:08.140Z,15.90
2023-05-23T05:43:40.398Z,16.00
2023-05-23T05:46:08.609Z,16.00
2023-05-23T05:48:36.692Z,16.00
2023-05-23T05:51:10.190Z,16.10
2023-05-23T05:53:41.270Z,16.10
2023-05-23T05:56:09.969Z,16.10
2023-05-23T05:58:39.839Z,16.10
2023-05-23T06:01:09.848Z,16.10
2023-05-23T06:03:39.444Z,16.20
2023-05-23T06:06:08.965Z,16.20
2023-05-23T06:08:41.202Z,16.20
2023-05-23T06:11:13.078Z,16.10
2023-05-23T06:13:41.246Z,16.10
2023-05-23T06:16:09.573Z,16.10
2023-05-23T06:18:38.363Z,16.10
2023-05-23T06:21:06.622Z,16.10
2023-05-23T06:23:36.544Z,16.00
2023-05-23T06:26:08.062Z,16.10
2023-05-23T06:28:36.382Z,16.10
2023-05-23T06:31:04.421Z,16.00
2023-05-23T06:33:33.009Z,16.00
2023-05-23T06:36:01.091Z,16.00
2023-05-23T06:38:33.672Z,16.00
2023-05-23T06:41:02.391Z,16.00
2023-05-23T06:43:35.634Z,16.00
2023-05-23T06:46:23.428Z,16.00
2023-05-23T06:49:02.702Z,16.00
2023-05-23T06:51:40.313Z,16.00
2023-05-23T06:54:08.724Z,16.00
2023-05-23T06:56:37.077Z,16.00
2023-05-23T06:59:07.430Z,16.00
2023-05-23T07:01:35.769Z,16.00
2023-05-23T07:04:04.363Z,16.00
2023-05-23T07:06:32.790Z,15.90
2023-05-23T07:09:04.050Z,15.90
2023-05-23T07:11:32.573Z,15.90
2023-05-23T07:14:01.298Z,15.80
2023-05-23T07:16:43.358Z,15.80
2023-05-23T07:19:12.185Z,15.70
2023-05-23T07:21:47.046Z,15.70
2023-05-23T07:24:17.783Z,15.70
2023-05-23T07:26:45.868Z,15.70
2023-05-23T07:29:14.055Z,15.70
2023-05-23T07:31:43.521Z,15.80
2023-05-23T07:34:13.422Z,15.80
2023-05-23T07:37:02.227Z,15.80
2023-05-23T07:39:37.179Z,15.90
2023-05-23T07:42:06.575Z,15.90
2023-05-23T07:44:34.713Z,16.00
2023-05-23T07:47:05.042Z,16.00
2023-05-23T07:49:34.290Z,16.00
2023-05-23T07:52:02.369Z,16.00
2023-05-23T07:54:33.027Z,16.10
2023-05-23T07:57:02.142Z,16.10
2023-05-23T07:59:30.836Z,16.10
2023-05-23T08:01:59.542Z,16.00
2023-05-23T08:04:29.643Z,16.00
2023-05-23T08:07:04.950Z,16.00
2023-05-23T08:09:53.254Z,16.10
2023-05-23T08:12:22.139Z,16.10
2023-05-23T08:14:55.945Z,16.10
2023-05-23T08:17:27.103Z,16.10
2023-05-23T08:19:57.008Z,16.10
2023-05-23T08:22:25.075Z,16.20
2023-05-23T08:24:53.650Z,16.20
2023-05-23T08:27:22.777Z,16.30
2023-05-23T08:29:56.119Z,16.30
2023-05-23T08:32:24.497Z,16.40
2023-05-23T08:34:52.973Z,16.50
2023-05-23T08:37:22.520Z,16.60
2023-05-23T08:39:52.242Z,16.70
2023-05-23T08:42:36.096Z,16.80
2023-05-23T08:45:05.909Z,16.80
2023-05-23T08:47:37.803Z,16.70
2023-05-23T08:50:08.336Z,16.60
2023-05-23T08:52:44.112Z,16.40
2023-05-23T08:55:12.872Z,16.20
2023-05-23T08:57:43.738Z,16.00
2023-05-23T09:00:29.306Z,15.90
2023-05-23T09:02:58.672Z,15.70
2023-05-23T09:05:43.436Z,15.60
2023-05-23T09:08:13.268Z,15.40
2023-05-23T09:10:43.723Z,15.30
2023-05-23T09:13:13.116Z,15.30
2023-05-23T09:15:58.619Z,15.10
2023-05-23T09:18:27.969Z,15.10
2023-05-23T09:20:56.166Z,15.00
2023-05-23T09:23:25.732Z,14.90
2023-05-23T09:25:54.234Z,15.00
2023-05-23T09:28:22.347Z,15.00
2023-05-23T09:30:59.503Z,15.00
2023-05-23T09:33:36.970Z,15.10
2023-05-23T09:36:06.365Z,15.10
2023-05-23T09:38:39.168Z,15.30
2023-05-23T09:41:07.413Z,15.30
2023-05-23T09:43:35.528Z,15.40
2023-05-23T09:46:09.636Z,15.60
2023-05-23T09:48:37.890Z,15.70
2023-05-23T09:51:07.572Z,15.90
2023-05-23T09:53:37.369Z,16.20
2023-05-23T09:56:06.637Z,16.40
2023-05-23T09:58:36.209Z,16.60
2023-05-23T10:01:04.669Z,16.70
2023-05-23T10:03:36.321Z,16.90
2023-05-23T10:06:09.621Z,17.00
2023-05-23T10:08:44.496Z,17.10
2023-05-23T10:11:51.879Z,17.10
2023-05-23T10:14:20.090Z,17.20
2023-05-23T10:17:00.312Z,17.20
2023-05-23T10:19:37.060Z,17.20
2023-05-23T10:22:09.728Z,17.20
2023-05-23T10:24:39.626Z,17.20
2023-05-23T10:27:08.637Z,17.30
2023-05-23T10:29:37.552Z,17.40
2023-05-23T10:32:07.507Z,17.70
2023-05-23T10:34:42.971Z,17.90
2023-05-23T10:37:20.009Z,18.20
2023-05-23T10:40:00.360Z,18.40
2023-05-23T10:42:41.665Z,18.60
2023-05-23T10:45:17.070Z,18.60
2023-05-23T10:47:45.263Z,18.60
2023-05-23T10:50:14.947Z,18.30
2023-05-23T10:52:43.814Z,18.00
2023-05-23T10:55:18.267Z,17.70
2023-05-23T10:57:46.815Z,17.60
2023-05-23T11:00:16.994Z,17.40
2023-05-23T11:02:54.374Z,17.20
2023-05-23T11:05:24.384Z,17.00
2023-05-23T11:08:09.036Z,16.90
2023-05-23T11:10:59.749Z,16.90
2023-05-23T11:13:48.838Z,17.00
2023-05-23T11:16:25.994Z,17.00
2023-05-23T11:18:59.060Z,17.00
2023-05-23T11:21:27.320Z,17.10
2023-05-23T11:23:56.752Z,17.20
2023-05-23T11:26:33.193Z,17.30
2023-05-23T11:29:04.019Z,17.40
2023-05-23T11:31:38.184Z,17.40
2023-05-23T11:34:07.798Z,17.40
2023-05-23T11:36:36.857Z,17.40
2023-05-23T11:39:05.503Z,17.30
2023-05-23T11:41:36.930Z,17.20
2023-05-23T11:44:13.125Z,17.10
2023-05-23T11:46:41.638Z,17.20
2023-05-23T11:49:13.366Z,17.30
2023-05-23T11:51:41.453Z,17.40
2023-05-23T11:54:09.503Z,17.40
2023-05-23T11:56:42.412Z,17.30
2023-05-23T11:59:10.642Z,17.30
2023-05-23T12:01:39.256Z,17.10
2023-05-23T12:04:12.849Z,17.00
2023-05-23T12:06:42.054Z,16.80
2023-05-23T12:09:12.524Z,16.70
2023-05-23T12:11:43.344Z,16.50
2023-05-23T12:14:16.607Z,16.40
2023-05-23T12:16:47.121Z,16.20
2023-05-23T12:19:16.199Z,16.20
2023-05-23T12:21:46.235Z,16.10
2023-05-23T12:24:17.233Z,15.80
2023-05-23T12:26:54.298Z,15.70
2023-05-23T12:29:22.808Z,15.50
2023-05-23T12:31:52.139Z,15.50
2023-05-23T12:34:22.519Z,15.40
2023-05-23T12:36:57.172Z,15.20
2023-05-23T12:39:33.742Z,15.10
2023-05-23T12:42:10.534Z,15.10
2023-05-23T12:44:38.898Z,15.10
2023-05-23T12:47:07.247Z,15.10
2023-05-23T12:49:35.313Z,15.00
2023-05-23T12:52:03.560Z,14.90
2023-05-23T12:54:31.966Z,14.90
2023-05-23T12:57:00.032Z,14.90
2023-05-23T12:59:29.485Z,14.90
2023-05-23T13:01:57.562Z,14.90
2023-05-23T13:04:25.566Z,14.90
2023-05-23T13:06:53.763Z,14.90
2023-05-23T13:09:21.803Z,14.80
2023-05-23T13:11:50.020Z,14.80
2023-05-23T13:14:18.180Z,14.80
2023-05-23T13:16:47.616Z,14.80
2023-05-23T13:19:16.103Z,14.80
2023-05-23T13:21:45.345Z,14.80
2023-05-23T13:24:14.630Z,14.80
2023-05-23T13:26:42.675Z,14.80
2023-05-23T13:29:10.750Z,14.80
2023-05-23T13:31:38.922Z,14.70
2023-05-23T13:34:08.721Z,14.70
2023-05-23T13:36:36.821Z,14.70
2023-05-23T13:39:05.040Z,14.70
2023-05-23T13:41:33.202Z,14.70
2023-05-23T13:44:01.253Z,14.70
2023-05-23T13:46:29.402Z,14.70
2023-05-23T13:48:57.474Z,14.70
2023-05-23T13:51:27.065Z,14.60
2023-05-23T13:53:55.093Z,14.70
2023-05-23T13:56:24.408Z,14.60
2023-05-23T13:58:52.438Z,14.70
2023-05-23T14:01:20.515Z,14.60
2023-05-23T14:03:48.593Z,14.60
2023-05-23T14:06:16.667Z,14.60
2023-05-23T14:08:46.419Z,14.60
2023-05-23T14:11:14.533Z,14.60
2023-05-23T14:13:42.622Z,14.50
2023-05-23T14:16:10.884Z,14.50
2023-05-23T14:18:39.088Z,14.40
2023-05-23T14:21:07.265Z,14.30
2023-05-23T14:23:35.421Z,14.30
2023-05-23T14:26:05.520Z,14.20
2023-05-23T14:28:33.688Z,14.10
2023-05-23T14:31:01.846Z,14.10
2023-05-23T14:33:30.009Z,14.00
2023-05-23T14:35:58.164Z,14.00
2023-05-23T14:38:27.115Z,13.90
2023-05-23T14:40:55.242Z,13.90
2023-05-23T14:43:24.639Z,13.90
2023-05-23T14:45:52.875Z,13.80
2023-05-23T14:48:21.281Z,13.90
2023-05-23T14:50:49.702Z,13.90
2023-05-23T14:53:21.860Z,13.90
2023-05-23T14:55:49.883Z,14.00
2023-05-23T14:58:18.123Z,13.90
2023-05-23T15:00:48.277Z,14.00
2023-05-23T15:03:16.654Z,14.00
2023-05-23T15:05:47.504Z,14.00
2023-05-23T15:08:17.138Z,14.00
2023-05-23T15:10:46.233Z,14.00
2023-05-23T15:13:14.485Z,14.00
2023-05-23T15:15:43.088Z,14.00
2023-05-23T15:18:21.406Z,13.90
2023-05-23T15:20:56.252Z,13.90
2023-05-23T15:23:24.265Z,13.90
2023-05-23T15:25:52.572Z,13.90
2023-05-23T15:28:20.885Z,13.80
2023-05-23T15:30:49.571Z,13.80
2023-05-23T15:33:19.024Z,13.80
2023-05-23T15:35:47.135Z,13.80
2023-05-23T15:38:17.095Z,13.80
2023-05-23T15:40:48.934Z,13.80
2023-05-23T15:43:17.272Z,13.70
2023-05-23T15:45:45.603Z,13.70
2023-05-23T15:48:13.972Z,13.70
2023-05-23T15:50:44.015Z,13.70
2023-05-23T15:53:12.288Z,13.60
2023-05-23T15:55:42.425Z,13.60
2023-05-23T15:58:11.328Z,13.60
2023-05-23T16:00:39.633Z,13.60
2023-05-23T16:03:08.038Z,13.60
2023-05-23T16:05:36.319Z,13.50
2023-05-23T16:08:05.972Z,13.40
2023-05-23T16:10:34.029Z,13.40
2023-05-23T16:13:02.318Z,13.20
2023-05-23T16:15:30.438Z,13.20
2023-05-23T16:17:58.820Z,13.10
2023-05-23T16:20:27.081Z,13.10
2023-05-23T16:22:55.131Z,13.00
2023-05-23T16:25:24.595Z,13.00
2023-05-23T16:27:52.658Z,13.00
2023-05-23T16:30:21.295Z,13.00
2023-05-23T16:32:49.356Z,13.00
2023-05-23T16:35:17.497Z,13.00
2023-05-23T16:37:45.578Z,13.00
2023-05-23T16:40:13.949Z,12.90
2023-05-23T16:42:43.372Z,12.90
2023-05-23T16:45:11.687Z,12.90
2023-05-23T16:47:39.823Z,12.90
2023-05-23T16:50:09.168Z,12.90
2023-05-23T16:52:37.367Z,12.90
2023-05-23T16:55:05.955Z,12.90
2023-05-23T16:57:34.023Z,12.90
2023-05-23T17:00:05.394Z,12.90
2023-05-23T17:02:33.652Z,12.80
2023-05-23T17:05:01.757Z,12.80
2023-05-23T17:07:29.832Z,12.80
2023-05-23T17:09:57.863Z,12.70
2023-05-23T17:12:26.992Z,12.70
2023-05-23T17:14:55.061Z,12.60
2023-05-23T17:17:24.595Z,12.70
2023-05-23T17:19:53.438Z,12.60
2023-05-23T17:22:21.599Z,12.70
2023-05-23T17:24:49.774Z,12.70
2023-05-23T17:27:17.819Z,12.60
2023-05-23T17:29:46.030Z,12.60
2023-05-23T17:32:14.347Z,12.60
2023-05-23T17:34:44.220Z,12.50
2023-05-23T17:37:12.683Z,12.50
2023-05-23T17:39:40.736Z,12.40
2023-05-23T17:42:08.814Z,12.40
2023-05-23T17:44:36.823Z,12.30
2023-05-23T17:47:05.623Z,12.30
2023-05-23T17:49:33.905Z,12.20
2023-05-23T17:52:04.775Z,12.10
2023-05-23T17:54:32.925Z,12.10
2023-05-23T17:57:01.902Z,12.00
2023-05-23T17:59:30.067Z,12.00
2023-05-23T18:01:58.189Z,12.00
2023-05-23T18:04:26.416Z,12.00
2023-05-23T18:06:54.618Z,12.10
2023-05-23T18:09:24.064Z,12.10
2023-05-23T18:11:52.264Z,12.10
2023-05-23T18:14:20.350Z,12.10
2023-05-23T18:16:48.607Z,12.10
2023-05-23T18:19:16.827Z,12.10
2023-05-23T18:21:45.027Z,12.00
2023-05-23T18:24:13.402Z,11.90
2023-05-23T18:26:43.310Z,11.80
2023-05-23T18:29:11.676Z,11.80
2023-05-23T18:31:39.937Z,11.80
2023-05-23T18:34:08.216Z,11.80
2023-05-23T18:36:36.571Z,11.80
2023-05-23T18:39:05.370Z,11.80
2023-05-23T18:41:33.523Z,11.80
2023-05-23T18:44:04.996Z,11.80
2023-05-23T18:46:33.145Z,11.80
2023-05-23T18:49:01.179Z,11.70
2023-05-23T18:51:29.391Z,11.70
2023-05-23T18:53:57.439Z,11.70
2023-05-23T18:56:25.575Z,11.70
2023-05-23T18:58:53.845Z,11.70
2023-05-23T19:01:23.383Z,11.70
2023-05-23T19:03:51.505Z,11.70
2023-05-23T19:06:20.021Z,11.70
2023-05-23T19:08:48.118Z,11.70
2023-05-23T19:11:16.164Z,11.70
2023-05-23T19:13:44.240Z,11.80
2023-05-23T19:16:12.343Z,11.80
2023-05-23T19:18:41.838Z,11.80
2023-05-23T19:21:10.103Z,11.70
2023-05-23T19:23:38.236Z,11.70
2023-05-23T19:26:06.336Z,11.60
2023-05-23T19:28:34.355Z,11.60
2023-05-23T19:31:02.440Z,11.60
2023-05-23T19:33:30.544Z,11.60
2023-05-23T19:36:00.000Z,11.60
2023-05-23T19:38:28.113Z,11.50
2023-05-23T19:40:56.227Z,11.50
2023-05-23T19:43:24.407Z,11.50
2023-05-23T19:45:52.636Z,11.50
2023-05-23T19:48:20.705Z,11.40
2023-05-23T19:50:48.811Z,11.40
2023-05-23T19:53:18.248Z,11.40
2023-05-23T19:55:46.289Z,11.30
2023-05-23T19:58:14.322Z,11.30
2023-05-23T20:00:42.782Z,11.20
2023-05-23T20:03:11.119Z,11.10
2023-05-23T20:05:39.415Z,11.10
2023-05-23T20:08:08.040Z,11.00
2023-05-23T20:10:37.475Z,10.90
2023-05-23T20:13:05.949Z,10.90
2023-05-23T20:15:39.865Z,10.90
2023-05-23T20:18:09.274Z,10.80
2023-05-23T20:20:37.418Z,10.80
2023-05-23T20:23:05.680Z,10.80
2023-05-23T20:25:34.043Z,10.80
2023-05-23T20:28:03.596Z,10.80
2023-05-23T20:30:32.165Z,10.80
2023-05-23T20:33:00.287Z,10.80
2023-05-23T20:35:28.495Z,10.80
2023-05-23T20:37:57.086Z,10.80
2023-05-23T20:40:25.666Z,10.80
2023-05-23T20:42:53.832Z,10.80
2023-05-23T20:45:23.250Z,10.80
2023-05-23T20:47:53.661Z,10.80
2023-05-23T20:50:22.020Z,10.70
2023-05-23T20:52:50.280Z,10.60
2023-05-23T20:55:18.927Z,10.50
2023-05-23T20:57:47.018Z,10.50
2023-05-23T21:00:15.923Z,10.50
2023-05-23T21:02:45.787Z,10.40
2023-05-23T21:05:13.900Z,10.40
2023-05-23T21:07:42.004Z,10.40
2023-05-23T21:10:10.418Z,10.40
2023-05-23T21:12:38.439Z,10.40
2023-05-23T21:15:07.441Z,10.40
2023-05-23T21:17:35.720Z,10.40
2023-05-23T21:20:06.780Z,10.40
2023-05-23T21:22:35.144Z,10.50
2023-05-23T21:25:03.198Z,10.40
2023-05-23T21:27:31.392Z,10.40
2023-05-23T21:29:59.656Z,10.40
2023-05-23T21:32:27.776Z,10.40
2023-05-23T21:34:55.957Z,10.40
2023-05-23T21:37:25.548Z,10.40
2023-05-23T21:39:53.913Z,10.40
2023-05-23T21:42:22.121Z,10.30
2023-05-23T21:44:50.178Z,10.40
2023-05-23T21:47:18.295Z,10.40
2023-05-23T21:49:46.358Z,10.40
2023-05-23T21:52:14.561Z,10.40
2023-05-23T21:54:45.968Z,10.40
2023-05-23T21:57:14.061Z,10.50
2023-05-23T21:59:42.533Z,10.50
2023-05-23T22:02:11.440Z,10.50
2023-05-23T22:04:39.515Z,10.50
2023-05-23T22:07:07.727Z,10.40
2023-05-23T22:09:35.781Z,10.20
2023-05-23T22:12:06.370Z,10.20
2023-05-23T22:14:34.381Z,10.10
2023-05-23T22:17:03.907Z,10.10
2023-05-23T22:19:32.037Z,10.00
2023-05-23T22:22:00.345Z,10.00
2023-05-23T22:24:29.215Z,9.90
2023-05-23T22:26:58.286Z,9.90
2023-05-23T22:29:28.099Z,9.90
2023-05-23T22:31:56.270Z,9.80
2023-05-23T22:34:24.386Z,9.80
2023-05-23T22:36:52.465Z,9.80
2023-05-23T22:39:20.527Z,9.80
2023-05-23T22:41:48.600Z,9.80
2023-05-23T22:44:16.714Z,9.80
2023-05-23T22:46:46.214Z,9.90
2023-05-23T22:49:15.443Z,9.90
2023-05-23T22:51:44.698Z,9.90
2023-05-23T22:54:12.769Z,9.80
2023-05-23T22:56:40.932Z,9.80
2023-05-23T22:59:08.996Z,9.80
2023-05-23T23:01:37.147Z,9.80
2023-05-23T23:04:06.562Z,9.80
2023-05-23T23:06:35.603Z,9.70
2023-05-23T23:09:05.049Z,9.70
2023-05-23T23:11:33.135Z,9.70
2023-05-23T23:14:01.197Z,9.70
2023-05-23T23:16:30.644Z,9.60
2023-05-23T23:18:58.966Z,9.60
2023-05-23T23:21:28.393Z,9.60
2023-05-23T23:23:56.667Z,9.60
2023-05-23T23:26:24.728Z,9.50
2023-05-23T23:28:52.902Z,9.50
2023-05-23T23:31:21.096Z,9.50
2023-05-23T23:33:49.213Z,9.50
2023-05-23T23:36:17.407Z,9.50
2023-05-23T23:38:46.991Z,9.50
2023-05-23T23:41:15.974Z,9.50
2023-05-23T23:43:43.975Z,9.50
2023-05-23T23:46:12.157Z,9.50
2023-05-23T23:48:40.317Z,9.50
2023-05-23T23:51:08.725Z,9.40
2023-05-23T23:53:36.959Z,9.40
2023-05-23T23:56:06.812Z,9.40
2023-05-23T23:58:34.805Z,9.30
